Time;durP1;ratioP1;P1;durP2;ratioP2;P2;SDS_P1;SDS_P2;PMS_P1;PMS_P2;Temp;Humidity;BMP_temperature;BMP_pressure;BME280_temperature;BME280_humidity;BME280_pressure;Samples;Min_cycle;Max_cycle;Signal;HPM_P1;HPM_P2
2022/04/08 00:01:21;;;;;;;1.42;0.10;;;;;;;;;;5052184;28;20095;-63
2022/04/08 00:03:46;;;;;;;0.43;0.10;;;;;;;;;;5065492;28;20473;-63
2022/04/08 00:06:12;;;;;;;2.33;0.20;;;;;;;;;;5056182;28;20021;-63
2022/04/08 00:08:37;;;;;;;4.28;0.15;;;;;;;;;;5073345;28;20024;-62
2022/04/08 00:11:02;;;;;;;2.20;0.20;;;;;;;;;;5074194;28;20052;-63
2022/04/08 00:13:27;;;;;;;2.85;0.28;;;;;;;;;;5056411;28;20027;-63
2022/04/08 00:15:53;;;;;;;3.08;0.40;;;;;;;;;;5059971;28;20085;-63
2022/04/08 00:18:19;;;;;;;2.25;0.20;;;;;;;;;;5074732;28;20047;-63
2022/04/08 00:20:45;;;;;;;2.08;0.10;;;;;;;;;;5068335;28;20107;-63
2022/04/08 00:23:10;;;;;;;2.85;0.22;;;;;;;;;;5063447;28;20104;-63
2022/04/08 00:25:36;;;;;;;4.32;0.60;;;;;;;;;;5054746;28;20029;-63
2022/04/08 00:28:01;;;;;;;1.75;0.10;;;;;;;;;;5044338;28;20466;-63
2022/04/08 00:30:26;;;;;;;2.80;0.20;;;;;;;;;;5051482;28;20418;-64
2022/04/08 00:32:51;;;;;;;3.30;0.32;;;;;;;;;;5042777;28;20104;-63
2022/04/08 00:35:17;;;;;;;2.33;0.20;;;;;;;;;;5063914;28;20039;-63
2022/04/08 00:37:42;;;;;;;1.25;0.17;;;;;;;;;;5054227;28;20052;-63
2022/04/08 00:40:07;;;;;;;2.97;0.30;;;;;;;;;;5061045;28;20025;-63
2022/04/08 00:42:33;;;;;;;1.55;0.20;;;;;;;;;;5053469;28;20032;-63
2022/04/08 00:44:58;;;;;;;2.85;0.17;;;;;;;;;;5060807;28;20040;-63
2022/04/08 00:47:23;;;;;;;2.72;0.32;;;;;;;;;;5053767;28;20473;-63
2022/04/08 00:49:49;;;;;;;1.30;0.10;;;;;;;;;;5061625;28;20586;-63
2022/04/08 00:52:14;;;;;;;3.97;0.20;;;;;;;;;;5073878;28;20114;-63
2022/04/08 00:54:40;;;;;;;5.63;0.65;;;;;;;;;;5068305;28;20028;-63
2022/04/08 00:57:05;;;;;;;3.60;0.30;;;;;;;;;;5048872;28;20202;-62
2022/04/08 00:59:31;;;;;;;3.28;0.20;;;;;;;;;;5039909;28;20683;-63
2022/04/08 01:01:57;;;;;;;4.43;0.45;;;;;;;;;;5061709;28;20079;-63
2022/04/08 01:04:23;;;;;;;1.83;0.10;;;;;;;;;;5053966;28;20430;-64
2022/04/08 01:06:48;;;;;;;3.47;0.30;;;;;;;;;;5053414;28;20108;-63
2022/04/08 01:09:14;;;;;;;0.30;0.03;;;;;;;;;;5053657;28;20581;-63
2022/04/08 01:11:40;;;;;;;1.42;0.20;;;;;;;;;;5053298;28;20059;-63
2022/04/08 01:14:09;;;;;;;2.20;0.25;;;;;;;;;;5051460;28;20021;-63
2022/04/08 01:16:34;;;;;;;5.70;0.35;;;;;;;;;;5061042;28;20025;-63
2022/04/08 01:18:59;;;;;;;2.72;0.10;;;;;;;;;;5052537;28;20043;-63
2022/04/08 01:21:25;;;;;;;2.58;0.40;;;;;;;;;;5056955;28;20028;-63
2022/04/08 01:23:52;;;;;;;1.52;0.45;;;;;;;;;;5053461;28;20037;-63
2022/04/08 01:26:17;;;;;;;1.63;0.10;;;;;;;;;;5053303;28;20056;-64
2022/04/08 01:28:43;;;;;;;3.20;0.20;;;;;;;;;;5045021;28;20488;-61
2022/04/08 01:31:08;;;;;;;2.33;0.10;;;;;;;;;;5048718;28;20021;-65
2022/04/08 01:33:34;;;;;;;2.25;0.20;;;;;;;;;;5064026;28;20032;-62
2022/04/08 01:35:59;;;;;;;2.95;0.17;;;;;;;;;;5048032;28;20470;-62
2022/04/08 01:38:24;;;;;;;2.50;0.40;;;;;;;;;;5052641;28;20032;-62
2022/04/08 01:40:49;;;;;;;3.72;0.43;;;;;;;;;;5059909;28;20047;-62
2022/04/08 01:43:14;;;;;;;2.42;0.20;;;;;;;;;;5056197;28;20033;-62
2022/04/08 01:45:40;;;;;;;1.95;0.22;;;;;;;;;;5041597;28;20064;-62
2022/04/08 01:48:05;;;;;;;2.88;0.20;;;;;;;;;;5057431;28;20527;-63
2022/04/08 01:50:30;;;;;;;3.03;0.30;;;;;;;;;;5051550;28;20440;-63
2022/04/08 01:52:55;;;;;;;2.08;0.35;;;;;;;;;;5053533;28;20025;-63
2022/04/08 01:55:21;;;;;;;2.47;0.38;;;;;;;;;;5051553;28;20021;-63
2022/04/08 01:57:46;;;;;;;2.15;0.55;;;;;;;;;;5047460;28;20550;-63
2022/04/08 02:00:11;;;;;;;1.10;0.10;;;;;;;;;;5051903;28;20095;-63
2022/04/08 02:02:37;;;;;;;3.63;0.40;;;;;;;;;;5051912;28;20028;-63
2022/04/08 02:05:02;;;;;;;3.25;0.10;;;;;;;;;;5056220;28;20033;-63
2022/04/08 02:07:27;;;;;;;3.20;0.25;;;;;;;;;;5054421;28;20021;-64
2022/04/08 02:09:53;;;;;;;3.17;0.45;;;;;;;;;;5055871;28;20025;-63
2022/04/08 02:12:18;;;;;;;2.35;0.20;;;;;;;;;;5062143;28;20089;-63
2022/04/08 02:14:43;;;;;;;3.83;0.40;;;;;;;;;;5053054;28;20385;-63
2022/04/08 02:17:08;;;;;;;1.77;0.40;;;;;;;;;;5059225;28;20260;-63
2022/04/08 02:19:33;;;;;;;2.05;0.10;;;;;;;;;;5063503;28;20021;-63
2022/04/08 02:21:59;;;;;;;0.82;0.08;;;;;;;;;;5052659;28;20033;-63
2022/04/08 02:24:25;;;;;;;1.80;0.30;;;;;;;;;;5058484;28;20085;-63
2022/04/08 02:26:50;;;;;;;3.33;0.43;;;;;;;;;;5055637;28;20040;-62
2022/04/08 02:29:15;;;;;;;0.70;0.10;;;;;;;;;;5043637;28;20359;-63
2022/04/08 02:31:41;;;;;;;0.70;0.20;;;;;;;;;;5047850;28;20029;-63
2022/04/08 02:34:06;;;;;;;1.27;0.22;;;;;;;;;;5064331;28;20041;-63
2022/04/08 02:36:31;;;;;;;4.70;0.10;;;;;;;;;;5052947;28;20036;-63
2022/04/08 02:38:56;;;;;;;0.80;0.20;;;;;;;;;;5068637;28;20052;-63
2022/04/08 02:41:21;;;;;;;1.48;0.00;;;;;;;;;;5056692;28;20025;-63
2022/04/08 02:43:48;;;;;;;1.00;0.20;;;;;;;;;;5065693;28;20086;-62
2022/04/08 02:46:13;;;;;;;1.45;0.30;;;;;;;;;;5050438;28;20017;-63
2022/04/08 02:48:38;;;;;;;0.47;0.10;;;;;;;;;;5051242;28;20029;-63
2022/04/08 02:51:03;;;;;;;1.73;0.40;;;;;;;;;;5052039;28;20021;-63
2022/04/08 02:53:29;;;;;;;1.52;0.10;;;;;;;;;;5061270;28;20020;-63
2022/04/08 02:55:54;;;;;;;2.30;0.20;;;;;;;;;;5056707;28;20470;-63
2022/04/08 02:58:19;;;;;;;0.50;0.20;;;;;;;;;;5044942;28;20099;-63
2022/04/08 03:00:44;;;;;;;0.60;0.35;;;;;;;;;;5042188;28;20099;-63
2022/04/08 03:03:09;;;;;;;2.72;0.13;;;;;;;;;;5050140;28;20111;-63
2022/04/08 03:05:34;;;;;;;0.80;0.10;;;;;;;;;;5050717;28;20028;-63
2022/04/08 03:08:00;;;;;;;0.50;0.00;;;;;;;;;;5050284;28;20490;-63
2022/04/08 03:10:25;;;;;;;1.65;0.20;;;;;;;;;;5051622;28;20083;-63
2022/04/08 03:12:50;;;;;;;1.88;0.20;;;;;;;;;;5049942;28;20021;-63
2022/04/08 03:15:15;;;;;;;1.35;0.22;;;;;;;;;;5048870;28;20048;-63
2022/04/08 03:17:40;;;;;;;1.38;0.20;;;;;;;;;;5050131;28;20029;-63
2022/04/08 03:20:06;;;;;;;2.60;0.15;;;;;;;;;;5068084;28;20476;-63
2022/04/08 03:22:31;;;;;;;2.13;0.60;;;;;;;;;;5070581;28;20477;-63
2022/04/08 03:24:57;;;;;;;1.13;0.10;;;;;;;;;;5071081;28;20032;-63
2022/04/08 03:27:22;;;;;;;1.27;0.10;;;;;;;;;;5049636;28;20451;-63
2022/04/08 03:29:50;;;;;;;1.60;0.35;;;;;;;;;;5041468;28;20531;-63
2022/04/08 03:32:15;;;;;;;1.52;0.20;;;;;;;;;;5047934;28;20029;-63
2022/04/08 03:34:40;;;;;;;0.35;0.10;;;;;;;;;;5056950;28;20376;-62
2022/04/08 03:37:06;;;;;;;2.90;0.10;;;;;;;;;;5053160;28;20486;-63
2022/04/08 03:39:31;;;;;;;1.23;0.13;;;;;;;;;;5050934;28;20370;-63
2022/04/08 03:41:57;;;;;;;2.45;0.20;;;;;;;;;;5054395;28;20085;-63
2022/04/08 03:44:22;;;;;;;2.67;0.17;;;;;;;;;;5053243;28;20018;-63
2022/04/08 03:46:47;;;;;;;1.95;0.32;;;;;;;;;;5055044;28;20139;-63
2022/04/08 03:49:16;;;;;;;0.50;0.30;;;;;;;;;;5051387;28;20013;-63
2022/04/08 03:51:42;;;;;;;1.35;0.20;;;;;;;;;;5052124;28;20048;-63
2022/04/08 03:54:08;;;;;;;0.95;0.25;;;;;;;;;;5051413;28;20110;-63
2022/04/08 03:56:33;;;;;;;2.00;0.25;;;;;;;;;;5050260;28;20025;-63
2022/04/08 03:58:58;;;;;;;0.28;0.20;;;;;;;;;;5040152;28;20052;-63
2022/04/08 04:01:23;;;;;;;1.90;0.35;;;;;;;;;;5048811;28;20120;-62
2022/04/08 04:03:57;;;;;;;0.88;0.10;;;;;;;;;;5063277;28;20444;-64
2022/04/08 04:06:22;;;;;;;0.65;0.20;;;;;;;;;;5050495;28;20495;-63
2022/04/08 04:08:48;;;;;;;0.52;0.10;;;;;;;;;;5050330;28;20466;-63
2022/04/08 04:11:16;;;;;;;0.77;0.35;;;;;;;;;;5051117;28;20032;-61
2022/04/08 04:13:42;;;;;;;2.20;0.30;;;;;;;;;;5052024;28;20031;-63
2022/04/08 04:16:07;;;;;;;1.75;0.30;;;;;;;;;;5054467;28;20025;-63
2022/04/08 04:18:32;;;;;;;2.35;0.40;;;;;;;;;;5056560;28;20490;-64
2022/04/08 04:20:57;;;;;;;2.67;0.28;;;;;;;;;;5054014;28;20021;-64
2022/04/08 04:23:23;;;;;;;1.98;0.45;;;;;;;;;;5057673;28;20036;-63
2022/04/08 04:25:48;;;;;;;3.38;0.50;;;;;;;;;;5054546;28;20067;-64
2022/04/08 04:28:13;;;;;;;1.05;0.20;;;;;;;;;;5048458;28;20062;-63
2022/04/08 04:30:38;;;;;;;3.40;0.30;;;;;;;;;;5053587;28;20032;-64
2022/04/08 04:33:07;;;;;;;1.15;0.30;;;;;;;;;;5041756;28;20445;-63
2022/04/08 04:35:33;;;;;;;2.13;0.30;;;;;;;;;;5054491;28;20401;-62
2022/04/08 04:37:58;;;;;;;1.25;0.30;;;;;;;;;;5054406;28;20021;-64
2022/04/08 04:40:25;;;;;;;1.33;0.30;;;;;;;;;;5053620;28;20393;-63
2022/04/08 04:42:50;;;;;;;1.85;0.30;;;;;;;;;;5053754;28;20028;-62
2022/04/08 04:45:15;;;;;;;1.50;0.40;;;;;;;;;;5045293;28;20026;-63
2022/04/08 04:47:41;;;;;;;3.30;0.68;;;;;;;;;;5053134;28;20175;-63
2022/04/08 04:50:06;;;;;;;1.90;0.38;;;;;;;;;;5050440;28;20660;-63
2022/04/08 04:52:31;;;;;;;2.33;0.70;;;;;;;;;;5053834;28;20637;-63
2022/04/08 04:54:56;;;;;;;2.15;0.28;;;;;;;;;;5059684;28;20033;-63
2022/04/08 04:57:22;;;;;;;1.65;0.45;;;;;;;;;;5047891;28;20116;-61
2022/04/08 04:59:48;;;;;;;0.93;0.30;;;;;;;;;;5048803;28;20040;-63
2022/04/08 05:02:13;;;;;;;1.73;0.40;;;;;;;;;;5052265;28;20032;-63
2022/04/08 05:04:38;;;;;;;2.33;0.43;;;;;;;;;;5062605;28;20032;-63
2022/04/08 05:07:03;;;;;;;2.63;0.30;;;;;;;;;;5042962;28;20029;-63
2022/04/08 05:09:29;;;;;;;2.53;0.80;;;;;;;;;;5043670;28;20057;-64
2022/04/08 05:11:54;;;;;;;0.20;0.20;;;;;;;;;;5040199;28;20043;-63
2022/04/08 05:14:22;;;;;;;1.25;0.28;;;;;;;;;;5042632;28;20025;-63
2022/04/08 05:16:47;;;;;;;1.42;0.73;;;;;;;;;;5053581;28;20482;-63
2022/04/08 05:19:12;;;;;;;2.85;0.30;;;;;;;;;;5057024;28;20021;-62
2022/04/08 05:21:38;;;;;;;0.98;0.20;;;;;;;;;;5058267;28;20390;-63
2022/04/08 05:24:03;;;;;;;1.45;0.22;;;;;;;;;;5053911;28;20508;-63
2022/04/08 05:26:28;;;;;;;0.90;0.40;;;;;;;;;;5042296;28;20025;-62
2022/04/08 05:28:53;;;;;;;0.52;0.28;;;;;;;;;;5045835;28;20147;-63
2022/04/08 05:31:19;;;;;;;1.13;0.20;;;;;;;;;;5035074;28;20033;-64
2022/04/08 05:33:44;;;;;;;1.63;0.30;;;;;;;;;;5047728;28;20075;-63
2022/04/08 05:36:09;;;;;;;1.02;0.20;;;;;;;;;;5033207;28;20029;-63
2022/04/08 05:38:34;;;;;;;1.30;0.50;;;;;;;;;;5049845;28;20512;-63
2022/04/08 05:41:00;;;;;;;1.85;0.30;;;;;;;;;;5052372;28;20075;-63
2022/04/08 05:43:25;;;;;;;0.73;0.30;;;;;;;;;;5051364;28;20051;-64
2022/04/08 05:45:50;;;;;;;1.13;0.30;;;;;;;;;;5049749;28;20033;-65
2022/04/08 05:48:15;;;;;;;1.13;0.22;;;;;;;;;;5047331;28;20025;-64
2022/04/08 05:50:41;;;;;;;1.45;0.20;;;;;;;;;;5036283;28;20049;-64
2022/04/08 05:53:06;;;;;;;1.58;0.43;;;;;;;;;;5049945;28;20389;-64
2022/04/08 05:55:31;;;;;;;0.88;0.10;;;;;;;;;;5055132;28;20393;-64
2022/04/08 05:57:56;;;;;;;1.08;0.25;;;;;;;;;;5048940;28;20112;-64
2022/04/08 06:00:22;;;;;;;3.35;0.47;;;;;;;;;;5045026;28;20464;-64
2022/04/08 06:02:48;;;;;;;2.95;0.30;;;;;;;;;;5061291;28;20056;-64
2022/04/08 06:05:19;;;;;;;1.63;0.30;;;;;;;;;;5055495;28;20036;-64
2022/04/08 06:07:49;;;;;;;1.73;0.30;;;;;;;;;;5040193;28;20053;-64
2022/04/08 06:10:18;;;;;;;1.83;0.30;;;;;;;;;;5069183;28;20024;-64
2022/04/08 06:12:44;;;;;;;1.08;0.20;;;;;;;;;;5059472;28;20017;-65
2022/04/08 06:15:09;;;;;;;0.88;0.20;;;;;;;;;;5052269;28;20048;-64
2022/04/08 06:17:37;;;;;;;0.43;0.15;;;;;;;;;;5053002;28;20082;-63
2022/04/08 06:20:04;;;;;;;1.30;0.20;;;;;;;;;;5046585;28;20104;-63
2022/04/08 06:22:30;;;;;;;1.77;0.25;;;;;;;;;;5056345;28;20048;-60
2022/04/08 06:24:55;;;;;;;1.95;0.47;;;;;;;;;;5052290;28;20079;-63
2022/04/08 06:27:20;;;;;;;1.25;0.20;;;;;;;;;;5046071;28;20025;-63
2022/04/08 06:29:45;;;;;;;0.57;0.20;;;;;;;;;;5050771;28;20017;-63
2022/04/08 06:32:10;;;;;;;0.28;0.15;;;;;;;;;;5062867;28;20025;-64
2022/04/08 06:34:35;;;;;;;0.30;0.30;;;;;;;;;;5052444;28;20434;-64
2022/04/08 06:37:01;;;;;;;1.25;0.20;;;;;;;;;;5059634;28;20459;-64
2022/04/08 06:39:26;;;;;;;0.98;0.15;;;;;;;;;;5051618;28;20481;-63
2022/04/08 06:41:51;;;;;;;1.52;0.80;;;;;;;;;;5051878;28;20023;-64
2022/04/08 06:44:16;;;;;;;1.05;0.28;;;;;;;;;;5048060;28;20055;-64
2022/04/08 06:46:42;;;;;;;1.10;0.20;;;;;;;;;;5049741;28;20397;-64
2022/04/08 06:49:07;;;;;;;1.73;0.20;;;;;;;;;;5071516;28;20025;-64
2022/04/08 06:51:32;;;;;;;0.65;0.20;;;;;;;;;;5064679;28;20021;-64
2022/04/08 06:53:57;;;;;;;0.63;0.28;;;;;;;;;;5071850;28;20385;-64
2022/04/08 06:56:22;;;;;;;1.40;0.40;;;;;;;;;;5050541;28;20485;-64
2022/04/08 06:58:48;;;;;;;2.47;0.30;;;;;;;;;;5045503;28;20410;-64
2022/04/08 07:01:14;;;;;;;0.77;0.20;;;;;;;;;;5032699;28;20021;-64
2022/04/08 07:03:39;;;;;;;1.27;0.20;;;;;;;;;;5032095;28;20467;-64
2022/04/08 07:06:04;;;;;;;1.77;0.28;;;;;;;;;;5041030;28;20030;-63
2022/04/08 07:08:29;;;;;;;0.93;0.25;;;;;;;;;;5048229;28;20461;-64
2022/04/08 07:10:54;;;;;;;1.48;0.20;;;;;;;;;;5051185;28;20215;-64
2022/04/08 07:13:20;;;;;;;0.73;0.20;;;;;;;;;;5051636;28;20029;-64
2022/04/08 07:15:45;;;;;;;1.50;0.10;;;;;;;;;;5049439;28;20028;-64
2022/04/08 07:18:10;;;;;;;0.57;0.20;;;;;;;;;;5042687;28;20055;-65
2022/04/08 07:20:35;;;;;;;2.05;0.20;;;;;;;;;;5039263;28;20516;-64
2022/04/08 07:23:02;;;;;;;2.78;0.50;;;;;;;;;;5051537;28;20474;-64
2022/04/08 07:25:27;;;;;;;0.28;0.20;;;;;;;;;;5051540;28;20036;-64
2022/04/08 07:27:55;;;;;;;1.40;0.40;;;;;;;;;;5042607;28;20017;-63
2022/04/08 07:30:21;;;;;;;1.90;0.15;;;;;;;;;;5049816;28;20056;-64
2022/04/08 07:32:48;;;;;;;0.40;0.20;;;;;;;;;;5049514;28;20078;-64
2022/04/08 07:35:13;;;;;;;1.27;0.20;;;;;;;;;;5031549;28;20029;-64
2022/04/08 07:37:38;;;;;;;0.77;0.20;;;;;;;;;;5032940;28;20125;-64
2022/04/08 07:40:05;;;;;;;0.40;0.20;;;;;;;;;;5032265;28;20026;-64
2022/04/08 07:42:30;;;;;;;3.20;0.15;;;;;;;;;;5046508;28;20449;-64
2022/04/08 07:44:55;;;;;;;0.50;0.20;;;;;;;;;;5041265;28;20071;-64
2022/04/08 07:47:20;;;;;;;0.57;0.10;;;;;;;;;;5030133;28;20022;-64
2022/04/08 07:49:49;;;;;;;2.17;0.20;;;;;;;;;;5038270;28;20036;-64
2022/04/08 07:52:14;;;;;;;1.00;0.43;;;;;;;;;;5050205;28;20017;-64
2022/04/08 07:54:39;;;;;;;0.95;0.20;;;;;;;;;;5055101;28;20043;-64
2022/04/08 07:57:04;;;;;;;1.60;0.20;;;;;;;;;;5046683;28;20029;-63
2022/04/08 07:59:30;;;;;;;2.15;0.20;;;;;;;;;;5049029;28;20060;-64
2022/04/08 08:01:55;;;;;;;1.27;0.20;;;;;;;;;;5048218;28;20029;-64
2022/04/08 08:04:21;;;;;;;0.40;0.10;;;;;;;;;;5039019;28;20040;-64
2022/04/08 08:06:47;;;;;;;0.55;0.10;;;;;;;;;;5042175;28;20036;-64
2022/04/08 08:09:12;;;;;;;0.57;0.10;;;;;;;;;;5042503;28;20021;-64
2022/04/08 08:11:37;;;;;;;0.55;0.20;;;;;;;;;;5042022;28;20025;-64
2022/04/08 08:14:03;;;;;;;0.45;0.10;;;;;;;;;;5049211;28;20040;-61
2022/04/08 08:16:28;;;;;;;1.77;0.17;;;;;;;;;;5059643;28;20020;-64
2022/04/08 08:18:57;;;;;;;1.50;0.35;;;;;;;;;;5060197;28;20021;-63
2022/04/08 08:21:25;;;;;;;0.85;0.20;;;;;;;;;;5059669;28;20021;-64
2022/04/08 08:23:51;;;;;;;1.30;0.20;;;;;;;;;;5074787;28;20017;-64
2022/04/08 08:26:16;;;;;;;0.10;0.10;;;;;;;;;;5062782;28;20029;-64
2022/04/08 08:28:42;;;;;;;0.70;0.20;;;;;;;;;;5036029;28;20444;-64
2022/04/08 08:31:07;;;;;;;1.00;0.30;;;;;;;;;;5065568;28;20033;-62
2022/04/08 08:33:32;;;;;;;1.02;0.20;;;;;;;;;;5052307;28;20048;-64
2022/04/08 08:35:58;;;;;;;2.28;0.20;;;;;;;;;;5053833;28;20026;-64
2022/04/08 08:38:23;;;;;;;2.03;0.20;;;;;;;;;;5054545;28;20029;-64
2022/04/08 08:40:49;;;;;;;0.93;0.20;;;;;;;;;;5040953;28;20029;-64
2022/04/08 08:43:17;;;;;;;0.30;0.10;;;;;;;;;;5042161;28;20075;-64
2022/04/08 08:45:43;;;;;;;0.30;0.20;;;;;;;;;;5040241;28;20037;-64
2022/04/08 08:48:08;;;;;;;0.50;0.20;;;;;;;;;;5048710;28;20017;-63
2022/04/08 08:50:37;;;;;;;0.50;0.10;;;;;;;;;;5063546;28;20021;-63
2022/04/08 08:53:02;;;;;;;1.08;0.10;;;;;;;;;;5052647;28;20018;-63
2022/04/08 08:55:27;;;;;;;0.50;0.20;;;;;;;;;;5053843;28;20547;-63
2022/04/08 08:57:52;;;;;;;1.60;0.20;;;;;;;;;;5038472;28;20470;-61
2022/04/08 09:00:19;;;;;;;0.50;0.20;;;;;;;;;;5050894;28;20056;-62
2022/04/08 09:02:45;;;;;;;0.57;0.10;;;;;;;;;;5046725;28;20029;-62
2022/04/08 09:05:20;;;;;;;1.50;0.30;;;;;;;;;;5054116;28;20112;-63
2022/04/08 09:07:45;;;;;;;;;;;;;;;;;;5050130;28;20028;-64
2022/04/08 09:10:10;;;;;;;1.25;0.40;;;;;;;;;;5053824;28;19950;-63
2022/04/08 09:12:35;;;;;;;0.28;0.22;;;;;;;;;;5048703;28;20441;-63
2022/04/08 09:15:03;;;;;;;0.65;0.20;;;;;;;;;;5050321;28;20029;-64
2022/04/08 09:17:29;;;;;;;0.65;0.15;;;;;;;;;;5053078;28;20112;-63
2022/04/08 09:19:55;;;;;;;0.73;0.20;;;;;;;;;;5064349;28;20150;-63
2022/04/08 09:22:21;;;;;;;2.15;0.15;;;;;;;;;;5051689;28;20025;-64
2022/04/08 09:24:46;;;;;;;0.90;0.20;;;;;;;;;;5055610;28;20410;-63
2022/04/08 09:27:12;;;;;;;1.55;0.20;;;;;;;;;;5036015;28;20130;-64
2022/04/08 09:29:41;;;;;;;2.20;0.30;;;;;;;;;;5041349;28;20569;-64
2022/04/08 09:32:09;;;;;;;0.65;0.10;;;;;;;;;;5051724;28;20017;-64
2022/04/08 09:34:35;;;;;;;1.77;0.30;;;;;;;;;;5033614;28;20021;-64
2022/04/08 09:37:10;;;;;;;0.63;0.20;;;;;;;;;;5049693;28;20078;-63
2022/04/08 09:39:36;;;;;;;1.33;0.20;;;;;;;;;;5048838;28;20060;-64
2022/04/08 09:42:05;;;;;;;3.90;0.30;;;;;;;;;;5058735;28;20070;-63
2022/04/08 09:44:30;;;;;;;0.88;0.20;;;;;;;;;;5043631;28;20040;-62
2022/04/08 09:46:55;;;;;;;1.15;0.20;;;;;;;;;;5045976;28;20033;-64
2022/04/08 09:49:21;;;;;;;0.38;0.20;;;;;;;;;;5051639;28;20013;-63
2022/04/08 09:51:49;;;;;;;0.40;0.20;;;;;;;;;;5053181;28;20052;-64
2022/04/08 09:54:18;;;;;;;1.00;0.25;;;;;;;;;;5048689;28;20008;-64
2022/04/08 09:56:44;;;;;;;0.40;0.30;;;;;;;;;;5050255;28;20470;-64
2022/04/08 09:59:09;;;;;;;1.17;0.20;;;;;;;;;;5047632;28;20044;-63
2022/04/08 10:01:35;;;;;;;0.50;0.22;;;;;;;;;;5058470;28;20043;-63
2022/04/08 10:04:01;;;;;;;1.00;0.40;;;;;;;;;;5063192;28;20044;-63
2022/04/08 10:06:27;;;;;;;1.15;0.20;;;;;;;;;;5046552;28;20059;-64
2022/04/08 10:08:53;;;;;;;0.70;0.30;;;;;;;;;;5050654;28;20508;-63
2022/04/08 10:11:24;;;;;;;0.52;0.22;;;;;;;;;;5046514;28;20124;-63
2022/04/08 10:13:58;;;;;;;0.77;0.20;;;;;;;;;;5050783;28;20053;-63
2022/04/08 10:16:23;;;;;;;1.17;0.40;;;;;;;;;;5054834;28;20029;-63
2022/04/08 10:18:50;;;;;;;0.82;0.40;;;;;;;;;;5056638;28;20083;-63
2022/04/08 10:21:16;;;;;;;1.15;0.40;;;;;;;;;;5046745;28;20041;-64
2022/04/08 10:23:57;;;;;;;0.60;0.50;;;;;;;;;;5046472;28;20028;-62
2022/04/08 10:26:23;;;;;;;0.55;0.30;;;;;;;;;;5050004;28;20037;-64
2022/04/08 10:28:50;;;;;;;0.47;0.38;;;;;;;;;;5037215;28;20033;-63
2022/04/08 10:31:16;;;;;;;1.48;0.40;;;;;;;;;;5059886;28;20099;-60
2022/04/08 10:33:46;;;;;;;1.88;0.30;;;;;;;;;;5043554;28;20022;-65
2022/04/08 10:36:11;;;;;;;1.95;0.50;;;;;;;;;;5045394;28;20480;-65
2022/04/08 10:38:37;;;;;;;1.48;0.25;;;;;;;;;;5058178;28;20036;-65
2022/04/08 10:41:07;;;;;;;1.27;0.28;;;;;;;;;;5038973;28;20147;-64
2022/04/08 10:43:41;;;;;;;0.65;0.40;;;;;;;;;;5049081;28;20029;-64
2022/04/08 10:46:06;;;;;;;1.52;0.30;;;;;;;;;;5060992;28;20029;-63
2022/04/08 10:48:32;;;;;;;2.08;0.30;;;;;;;;;;5050959;28;20071;-65
2022/04/08 10:51:23;;;;;;;1.25;0.45;;;;;;;;;;5049937;28;20078;-64
2022/04/08 10:53:49;;;;;;;0.73;0.40;;;;;;;;;;5051259;28;20068;-64
2022/04/08 10:56:14;;;;;;;0.50;0.47;;;;;;;;;;5053387;28;20048;-63
2022/04/08 10:58:42;;;;;;;1.02;0.40;;;;;;;;;;5032780;28;20065;-59
2022/04/08 11:01:13;;;;;;;1.05;0.50;;;;;;;;;;5048303;28;20034;-63
2022/04/08 11:03:44;;;;;;;0.60;0.32;;;;;;;;;;5038066;28;20029;-65
2022/04/08 11:06:09;;;;;;;2.13;0.70;;;;;;;;;;5050966;28;20022;-64
2022/04/08 11:08:35;;;;;;;0.80;0.40;;;;;;;;;;5043860;28;20032;-63
2022/04/08 11:11:00;;;;;;;1.13;0.47;;;;;;;;;;5060828;28;20024;-63
2022/04/08 11:13:26;;;;;;;1.85;0.43;;;;;;;;;;5035151;28;20055;-63
2022/04/08 11:15:51;;;;;;;0.85;0.40;;;;;;;;;;5042393;28;20099;-63
2022/04/08 11:18:17;;;;;;;2.53;0.50;;;;;;;;;;5036955;28;20421;-63
2022/04/08 11:20:47;;;;;;;1.35;0.50;;;;;;;;;;5035421;28;20455;-63
2022/04/08 11:23:12;;;;;;;0.80;0.40;;;;;;;;;;5039723;28;20017;-62
2022/04/08 11:25:37;;;;;;;2.00;0.38;;;;;;;;;;5036287;28;20033;-64
2022/04/08 11:28:07;;;;;;;0.65;0.47;;;;;;;;;;5044638;28;20066;-64
2022/04/08 11:30:38;;;;;;;2.85;0.68;;;;;;;;;;5054955;28;20025;-62
2022/04/08 11:33:19;;;;;;;0.82;0.50;;;;;;;;;;5050051;28;20013;-64
2022/04/08 11:35:45;;;;;;;1.10;0.30;;;;;;;;;;5054074;28;20032;-63
2022/04/08 11:38:17;;;;;;;2.33;0.63;;;;;;;;;;5049546;28;20017;-64
2022/04/08 11:40:42;;;;;;;1.17;0.40;;;;;;;;;;5052808;28;20024;-63
2022/04/08 11:43:08;;;;;;;0.52;0.35;;;;;;;;;;5056905;28;20501;-64
2022/04/08 11:45:34;;;;;;;0.95;0.30;;;;;;;;;;5044648;28;20028;-64
2022/04/08 11:47:59;;;;;;;1.02;0.32;;;;;;;;;;5038091;28;20025;-64
2022/04/08 11:50:27;;;;;;;1.50;0.55;;;;;;;;;;5047548;28;20032;-63
2022/04/08 11:52:53;;;;;;;0.68;0.38;;;;;;;;;;5041109;28;20039;-63
2022/04/08 11:55:21;;;;;;;1.13;0.35;;;;;;;;;;5039804;28;20029;-63
2022/04/08 11:57:47;;;;;;;0.98;0.45;;;;;;;;;;5040602;28;20052;-63
2022/04/08 12:00:12;;;;;;;2.67;0.50;;;;;;;;;;5040677;28;20114;-63
2022/04/08 12:02:37;;;;;;;0.70;0.40;;;;;;;;;;5047570;28;20489;-63
2022/04/08 12:05:03;;;;;;;0.93;0.55;;;;;;;;;;5040370;28;20377;-64
2022/04/08 12:07:28;;;;;;;1.65;0.50;;;;;;;;;;5040637;28;20029;-64
2022/04/08 12:09:54;;;;;;;1.42;0.50;;;;;;;;;;5038223;28;20059;-63
2022/04/08 12:12:23;;;;;;;2.67;0.50;;;;;;;;;;5049951;28;20505;-62
2022/04/08 12:14:49;;;;;;;2.13;0.60;;;;;;;;;;5051997;28;20020;-63
2022/04/08 12:17:14;;;;;;;1.80;0.68;;;;;;;;;;5045848;28;20029;-63
2022/04/08 12:19:40;;;;;;;1.08;0.68;;;;;;;;;;5040199;28;20477;-63
2022/04/08 12:22:12;;;;;;;2.88;0.70;;;;;;;;;;5052851;28;20040;-62
2022/04/08 12:24:39;;;;;;;2.72;0.80;;;;;;;;;;5054301;28;20033;-63
2022/04/08 12:27:10;;;;;;;1.02;0.55;;;;;;;;;;5050036;28;20021;-61
2022/04/08 12:29:37;;;;;;;1.65;0.50;;;;;;;;;;5054350;28;20047;-63
2022/04/08 12:32:03;;;;;;;2.72;0.60;;;;;;;;;;5058214;28;20476;-62
2022/04/08 12:34:28;;;;;;;1.65;0.40;;;;;;;;;;5060783;28;20028;-62
2022/04/08 12:36:53;;;;;;;1.33;0.77;;;;;;;;;;5053087;28;20036;-63
2022/04/08 12:39:18;;;;;;;2.85;0.90;;;;;;;;;;5049661;28;20028;-63
2022/04/08 12:41:45;;;;;;;1.40;0.77;;;;;;;;;;5048471;28;20393;-60
2022/04/08 12:44:11;;;;;;;1.67;0.45;;;;;;;;;;5050382;28;20029;-63
2022/04/08 12:46:36;;;;;;;1.48;0.57;;;;;;;;;;5050891;28;20018;-64
2022/04/08 12:49:02;;;;;;;2.58;0.90;;;;;;;;;;5048709;28;20036;-63
2022/04/08 12:51:28;;;;;;;1.02;0.60;;;;;;;;;;5054774;28;20036;-63
2022/04/08 12:53:53;;;;;;;2.90;0.55;;;;;;;;;;5071229;28;20025;-64
2022/04/08 12:56:19;;;;;;;2.35;0.50;;;;;;;;;;5072030;28;20036;-64
2022/04/08 12:58:45;;;;;;;3.63;0.70;;;;;;;;;;5040914;28;20085;-63
2022/04/08 13:01:10;;;;;;;0.85;0.52;;;;;;;;;;5049727;28;20111;-63
2022/04/08 13:03:37;;;;;;;1.67;0.45;;;;;;;;;;5033954;28;20024;-63
2022/04/08 13:06:02;;;;;;;1.63;0.73;;;;;;;;;;5046313;28;20022;-63
2022/04/08 13:08:28;;;;;;;0.90;0.32;;;;;;;;;;5051626;28;20040;-63
2022/04/08 13:10:53;;;;;;;2.05;0.63;;;;;;;;;;5053832;28;20059;-63
2022/04/08 13:13:20;;;;;;;2.08;1.02;;;;;;;;;;5048883;28;20037;-63
2022/04/08 13:15:45;;;;;;;4.47;1.60;;;;;;;;;;5049232;28;20044;-60
2022/04/08 13:18:11;;;;;;;2.40;1.20;;;;;;;;;;5047166;28;20029;-61
2022/04/08 13:20:36;;;;;;;3.30;1.73;;;;;;;;;;5042374;28;20039;-61
2022/04/08 13:23:01;;;;;;;5.07;2.85;;;;;;;;;;5062248;28;20039;-62
2022/04/08 13:25:26;;;;;;;2.72;0.93;;;;;;;;;;5052695;28;20124;-62
2022/04/08 13:27:53;;;;;;;2.58;1.85;;;;;;;;;;5045748;28;20119;-62
2022/04/08 13:30:19;;;;;;;1.63;0.60;;;;;;;;;;5055841;28;20020;-63
2022/04/08 13:32:44;;;;;;;2.20;1.00;;;;;;;;;;5041330;28;20128;-63
2022/04/08 13:35:09;;;;;;;1.40;0.65;;;;;;;;;;5053070;28;20065;-63
2022/04/08 13:37:37;;;;;;;1.10;0.82;;;;;;;;;;5034309;28;20072;-63
2022/04/08 13:40:04;;;;;;;1.10;0.82;;;;;;;;;;5049391;28;20020;-64
2022/04/08 13:42:29;;;;;;;2.65;0.77;;;;;;;;;;5045743;28;20031;-64
2022/04/08 13:44:54;;;;;;;1.25;0.65;;;;;;;;;;5060983;28;20036;-63
2022/04/08 13:47:19;;;;;;;2.72;0.57;;;;;;;;;;5057758;28;20013;-63
2022/04/08 13:49:44;;;;;;;1.10;0.47;;;;;;;;;;5046284;28;20029;-63
2022/04/08 13:52:10;;;;;;;2.40;0.80;;;;;;;;;;5049855;28;20028;-63
2022/04/08 13:54:35;;;;;;;2.05;0.50;;;;;;;;;;5049398;28;20028;-64
2022/04/08 13:57:00;;;;;;;1.73;0.45;;;;;;;;;;5048181;28;20410;-63
2022/04/08 13:59:25;;;;;;;2.55;0.45;;;;;;;;;;5042751;28;20051;-63
2022/04/08 14:01:51;;;;;;;2.10;0.40;;;;;;;;;;5046569;28;20021;-63
2022/04/08 14:04:16;;;;;;;1.45;0.50;;;;;;;;;;5034949;28;20036;-63
2022/04/08 14:06:41;;;;;;;1.65;0.30;;;;;;;;;;5058895;28;20420;-62
2022/04/08 14:09:07;;;;;;;2.42;0.32;;;;;;;;;;5045704;28;20044;-62
2022/04/08 14:11:32;;;;;;;0.55;0.20;;;;;;;;;;5050895;28;20025;-64
2022/04/08 14:13:58;;;;;;;1.25;0.30;;;;;;;;;;5052018;28;20489;-62
2022/04/08 14:16:23;;;;;;;2.97;0.45;;;;;;;;;;5056493;28;20029;-64
2022/04/08 14:18:48;;;;;;;1.30;0.40;;;;;;;;;;5048958;28;20020;-62
2022/04/08 14:21:13;;;;;;;2.05;0.40;;;;;;;;;;5048482;28;20033;-63
2022/04/08 14:23:40;;;;;;;1.17;0.52;;;;;;;;;;5047062;28;20069;-62
2022/04/08 14:26:05;;;;;;;2.47;0.90;;;;;;;;;;5053743;28;20513;-62
2022/04/08 14:28:31;;;;;;;2.15;0.70;;;;;;;;;;5051131;28;20458;-62
2022/04/08 14:30:56;;;;;;;1.02;0.47;;;;;;;;;;5068586;28;20020;-62
2022/04/08 14:33:21;;;;;;;1.35;0.60;;;;;;;;;;5057191;28;20369;-63
2022/04/08 14:35:47;;;;;;;1.27;0.50;;;;;;;;;;5060737;28;20024;-63